Gaskill, New York
Current Conditions -  °F | °C
As of 1:53 PM on Saturday 25 Oct 2014 (Local Time) from KBGM Reporting Station
Clear Clear  
Wind Chill: 60°   Ceiling: Unl
Heat Index: 60°   Visibility: 10mi
Dew Point: 44°   Wind: 14mph
Humidity: 55%   Direction: 240°WSW
Pressure: 29.7"   Gusts: 22mph
Location:  42.1349°N, 76.2495°W
Report Text: KBGM 251753Z 24012G19KT 10SM CLR 16/07 A2970 RMK AO2 SLP060 T01560067 10156 20061 56036
Loading
Personal Weather Stations






























Interactive Weather Map
Tropical Storm Tracking
New forecast layout! Learn more

10-Day Weather Forecast

Advertisements
Track Severe Weather on mobile